createdAt,value
2023-02-11T00:00:32.396Z,49.80
2023-02-11T00:03:02.061Z,53.13
2023-02-11T00:05:34.267Z,49.83
2023-02-11T00:08:03.895Z,52.55
2023-02-11T00:10:33.482Z,49.25
2023-02-11T00:13:03.057Z,45.28
2023-02-11T00:15:32.694Z,40.78
2023-02-11T00:18:02.285Z,41.75
2023-02-11T00:20:34.417Z,38.85
2023-02-11T00:23:03.994Z,40.35
2023-02-11T00:25:33.677Z,36.35
2023-02-11T00:28:03.275Z,40.97
2023-02-11T00:30:33.097Z,48.67
2023-02-11T00:33:02.860Z,38.17
2023-02-11T00:35:35.317Z,39.38
2023-02-11T00:38:04.903Z,39.60
2023-02-11T00:40:34.563Z,36.08
2023-02-11T00:43:04.129Z,38.63
2023-02-11T00:45:33.788Z,46.38
2023-02-11T00:48:04.913Z,38.20
2023-02-11T00:50:37.106Z,33.17
2023-02-11T00:53:06.736Z,37.08
2023-02-11T00:55:36.533Z,39.88
2023-02-11T00:58:06.127Z,32.88
2023-02-11T01:00:35.894Z,36.42
2023-02-11T01:03:05.558Z,39.85
2023-02-11T01:05:37.987Z,37.60
2023-02-11T01:08:08.101Z,38.78
2023-02-11T01:10:37.706Z,34.72
2023-02-11T01:13:07.875Z,33.28
2023-02-11T01:15:37.560Z,34.65
2023-02-11T01:18:08.067Z,36.42
2023-02-11T01:20:45.166Z,36.20
2023-02-11T01:23:14.851Z,35.50
2023-02-11T01:25:45.997Z,33.30
2023-02-11T01:28:19.668Z,37.30
2023-02-11T01:30:49.598Z,37.38
2023-02-11T01:33:19.400Z,36.70
2023-02-11T01:35:51.893Z,36.45
2023-02-11T01:38:23.494Z,37.70
2023-02-11T01:40:57.461Z,35.00
2023-02-11T01:43:28.594Z,34.53
2023-02-11T01:46:09.845Z,36.53
2023-02-11T01:48:41.646Z,36.22
2023-02-11T01:51:16.634Z,38.80
2023-02-11T01:53:59.358Z,37.15
2023-02-11T01:56:42.954Z,33.15
2023-02-11T01:59:15.645Z,35.80
2023-02-11T02:01:49.851Z,36.33
2023-02-11T02:06:55.653Z,35.83
2023-02-11T02:09:26.954Z,41.05
2023-02-11T02:11:56.840Z,32.90
2023-02-11T02:14:29.028Z,35.78
2023-02-11T02:16:58.682Z,40.53
2023-02-11T02:19:51.658Z,38.17
2023-02-11T02:23:03.681Z,34.65
2023-02-11T02:26:14.548Z,36.67
2023-02-11T02:29:25.180Z,37.22
2023-02-11T02:32:39.316Z,36.85
2023-02-11T02:35:19.338Z,40.22
2023-02-11T02:37:54.290Z,36.63
2023-02-11T02:40:27.099Z,39.28
2023-02-11T02:42:58.162Z,39.65
2023-02-11T02:45:27.793Z,38.13
2023-02-11T02:47:58.314Z,39.20
2023-02-11T02:50:33.632Z,37.65
2023-02-11T02:53:14.834Z,40.38
2023-02-11T02:55:52.482Z,37.00
2023-02-11T02:58:49.903Z,37.05
2023-02-11T03:01:27.926Z,34.92
2023-02-11T03:04:02.664Z,41.00
2023-02-11T03:06:37.788Z,36.15
2023-02-11T03:09:11.460Z,35.75
2023-02-11T03:11:41.778Z,36.30
2023-02-11T03:14:14.216Z,45.17
2023-02-11T03:16:44.185Z,41.72
2023-02-11T03:19:16.564Z,36.30
2023-02-11T03:21:49.913Z,38.05
2023-02-11T03:24:23.183Z,35.70
2023-02-11T03:26:55.529Z,36.13
2023-02-11T03:29:34.652Z,39.03
2023-02-11T03:32:08.177Z,34.83
2023-02-11T03:34:43.303Z,36.35
2023-02-11T03:37:17.379Z,31.75
2023-02-11T03:39:50.589Z,38.50
2023-02-11T03:42:21.233Z,34.75
2023-02-11T03:45:08.576Z,33.75
2023-02-11T03:47:40.332Z,37.60
2023-02-11T03:50:11.844Z,37.67
2023-02-11T03:52:44.230Z,37.38
2023-02-11T03:55:16.378Z,33.90
2023-02-11T03:57:46.039Z,34.67
2023-02-11T04:00:16.880Z,39.65
2023-02-11T04:02:46.975Z,32.72
2023-02-11T04:05:18.335Z,38.67
2023-02-11T04:07:50.517Z,39.13
2023-02-11T04:10:20.621Z,35.72
2023-02-11T04:12:50.363Z,38.97
2023-02-11T04:15:20.211Z,36.42
2023-02-11T04:17:49.850Z,41.08
2023-02-11T04:20:19.650Z,34.65
2023-02-11T04:22:51.838Z,42.70
2023-02-11T04:25:21.666Z,39.25
2023-02-11T04:27:51.302Z,41.67
2023-02-11T04:30:21.212Z,40.90
2023-02-11T04:32:50.914Z,40.67
2023-02-11T04:35:20.712Z,39.67
2023-02-11T04:37:52.900Z,44.75
2023-02-11T04:40:22.738Z,48.13
2023-02-11T04:42:52.365Z,47.95
2023-02-11T04:45:22.005Z,41.90
2023-02-11T04:47:51.622Z,42.83
2023-02-11T04:50:21.395Z,44.60
2023-02-11T04:52:53.587Z,41.55
2023-02-11T04:55:23.194Z,41.88
2023-02-11T04:57:52.828Z,40.25
2023-02-11T05:00:22.601Z,41.35
2023-02-11T05:02:52.228Z,39.80
2023-02-11T05:05:22.028Z,43.88
2023-02-11T05:07:54.545Z,38.50
2023-02-11T05:10:24.155Z,46.15
2023-02-11T05:12:55.895Z,43.28
2023-02-11T05:15:25.752Z,35.45
2023-02-11T05:17:56.294Z,37.35
2023-02-11T05:20:26.015Z,38.15
2023-02-11T05:22:58.286Z,43.78
2023-02-11T05:25:27.906Z,43.08
2023-02-11T05:27:57.533Z,44.65
2023-02-11T05:30:27.210Z,44.45
2023-02-11T05:32:56.889Z,43.33
2023-02-11T05:35:26.604Z,54.10
2023-02-11T05:37:58.762Z,47.97
2023-02-11T05:40:28.390Z,52.60
2023-02-11T05:42:57.978Z,48.30
2023-02-11T05:45:27.618Z,51.53
2023-02-11T05:47:57.295Z,60.83
2023-02-11T05:50:27.129Z,48.92
2023-02-11T05:52:59.326Z,52.00
2023-02-11T05:55:29.124Z,55.35
2023-02-11T05:57:58.777Z,54.70
2023-02-11T06:00:29.042Z,56.10
2023-02-11T06:02:58.714Z,55.53
2023-02-11T06:05:28.549Z,65.60
2023-02-11T06:08:01.123Z,55.72
2023-02-11T06:10:30.722Z,58.40
2023-02-11T06:13:00.321Z,63.20
2023-02-11T06:15:29.941Z,60.10
2023-02-11T06:17:59.700Z,53.95
2023-02-11T06:20:29.842Z,65.65
2023-02-11T06:23:02.102Z,57.20
2023-02-11T06:25:31.816Z,59.97
2023-02-11T06:28:01.472Z,60.45
2023-02-11T06:30:31.124Z,55.50
2023-02-11T06:33:00.714Z,60.72
2023-02-11T06:35:30.295Z,57.25
2023-02-11T06:38:02.503Z,67.18
2023-02-11T06:40:32.199Z,65.28
2023-02-11T06:43:01.822Z,68.40
2023-02-11T06:45:31.465Z,65.13
2023-02-11T06:48:01.055Z,72.35
2023-02-11T06:50:30.656Z,74.82
2023-02-11T06:53:04.389Z,66.80
2023-02-11T06:55:33.958Z,80.15
2023-02-11T06:58:03.631Z,71.63
2023-02-11T07:00:33.262Z,75.70
2023-02-11T07:03:03.068Z,67.00
2023-02-11T07:05:34.204Z,67.50
2023-02-11T07:08:07.060Z,76.78
2023-02-11T07:10:37.095Z,74.90
2023-02-11T07:13:06.792Z,75.90
2023-02-11T07:15:36.442Z,86.72
2023-02-11T07:18:06.220Z,72.55
2023-02-11T07:20:35.845Z,79.00
2023-02-11T07:23:08.294Z,70.93
2023-02-11T07:25:38.346Z,69.32
2023-02-11T07:28:08.334Z,73.32
2023-02-11T07:30:37.985Z,76.00
2023-02-11T07:33:07.556Z,76.20
2023-02-11T07:35:37.124Z,75.95
2023-02-11T07:38:09.312Z,70.95
2023-02-11T07:40:39.474Z,85.22
2023-02-11T07:43:09.478Z,84.10
2023-02-11T07:45:41.465Z,79.10
2023-02-11T07:48:11.100Z,68.30
2023-02-11T07:50:40.794Z,79.80
2023-02-11T07:53:13.042Z,68.53
2023-02-11T07:55:43.055Z,82.95
2023-02-11T07:58:13.024Z,72.95
2023-02-11T08:00:42.710Z,81.95
2023-02-11T08:03:12.916Z,79.80
2023-02-11T08:05:43.891Z,76.38
2023-02-11T08:08:16.100Z,74.32
2023-02-11T08:10:45.902Z,83.28
2023-02-11T08:13:15.635Z,76.57
2023-02-11T08:15:45.213Z,75.03
2023-02-11T08:18:15.501Z,78.80
2023-02-11T08:20:45.252Z,68.03
2023-02-11T08:23:17.473Z,71.60
2023-02-11T08:25:47.063Z,89.63
2023-02-11T08:28:16.795Z,75.30
2023-02-11T08:30:46.447Z,61.97
2023-02-11T08:33:16.090Z,78.78
2023-02-11T08:35:45.734Z,72.45
2023-02-11T08:38:18.119Z,83.18
2023-02-11T08:40:48.400Z,79.53
2023-02-11T08:43:18.388Z,77.47
2023-02-11T08:45:48.507Z,81.45
2023-02-11T08:48:18.270Z,78.50
2023-02-11T08:50:47.906Z,80.10
2023-02-11T08:53:20.207Z,72.75
2023-02-11T08:55:52.242Z,70.15
2023-02-11T08:58:22.377Z,89.63
2023-02-11T09:00:52.743Z,69.53
2023-02-11T09:03:22.632Z,73.07
2023-02-11T09:05:53.411Z,65.00
2023-02-11T09:08:28.232Z,73.72
2023-02-11T09:11:02.413Z,67.72
2023-02-11T09:16:01.996Z,66.50
2023-02-11T09:18:31.725Z,77.93
2023-02-11T09:21:05.493Z,67.57
2023-02-11T09:23:38.870Z,85.28
2023-02-11T09:26:09.538Z,73.55
2023-02-11T09:28:39.494Z,65.20
2023-02-11T09:31:09.698Z,96.40
2023-02-11T09:33:39.624Z,67.82
2023-02-11T09:36:10.696Z,68.85
2023-02-11T09:38:42.925Z,74.85
2023-02-11T09:41:28.796Z,72.60
2023-02-11T09:43:59.749Z,82.55
2023-02-11T09:46:34.004Z,74.03
2023-02-11T09:49:04.816Z,77.40
2023-02-11T09:51:39.407Z,68.28
2023-02-11T09:54:19.693Z,73.18
2023-02-11T09:56:49.332Z,70.35
2023-02-11T09:59:20.258Z,75.75
2023-02-11T10:01:52.493Z,72.75
2023-02-11T10:04:32.300Z,66.82
2023-02-11T10:07:06.174Z,71.07
2023-02-11T10:09:49.960Z,69.13
2023-02-11T10:12:38.351Z,78.63
2023-02-11T10:15:32.494Z,65.32
2023-02-11T10:18:18.757Z,69.72
2023-02-11T10:20:52.658Z,70.50
2023-02-11T10:23:24.763Z,67.38
2023-02-11T10:25:58.067Z,79.57
2023-02-11T10:28:32.934Z,75.40
2023-02-11T10:31:04.736Z,77.00
2023-02-11T10:33:39.305Z,72.70
2023-02-11T10:36:09.822Z,65.63
2023-02-11T10:38:39.706Z,63.42
2023-02-11T10:41:12.833Z,64.00
2023-02-11T10:43:44.622Z,61.88
2023-02-11T10:46:19.399Z,64.88
2023-02-11T10:48:51.633Z,69.70
2023-02-11T10:51:25.547Z,64.28
2023-02-11T10:54:19.565Z,63.53
2023-02-11T10:56:53.903Z,65.10
2023-02-11T10:59:28.070Z,65.18
2023-02-11T11:04:37.851Z,63.83
2023-02-11T11:07:19.612Z,63.67
2023-02-11T11:09:55.604Z,57.08
2023-02-11T11:12:42.271Z,60.22
2023-02-11T11:15:23.558Z,66.15
2023-02-11T11:17:59.610Z,60.10
2023-02-11T11:20:38.061Z,60.70
2023-02-11T11:23:14.847Z,58.25
2023-02-11T11:25:46.470Z,66.85
2023-02-11T11:28:27.171Z,61.60
2023-02-11T11:30:58.786Z,65.72
2023-02-11T11:33:30.655Z,60.47
2023-02-11T11:36:04.984Z,60.70
2023-02-11T11:38:35.161Z,64.40
2023-02-11T11:41:21.851Z,62.63
2023-02-11T11:44:06.815Z,57.42
2023-02-11T11:46:38.726Z,56.05
2023-02-11T11:49:20.195Z,53.55
2023-02-11T11:51:56.368Z,59.20
2023-02-11T11:54:26.554Z,60.10
2023-02-11T11:56:59.724Z,61.72
2023-02-11T11:59:32.431Z,59.93
2023-02-11T12:02:27.948Z,66.07
2023-02-11T12:05:04.968Z,60.47
2023-02-11T12:07:43.175Z,54.45
2023-02-11T12:10:36.046Z,53.67
2023-02-11T12:13:14.319Z,64.10
2023-02-11T12:15:54.806Z,57.63
2023-02-11T12:18:44.933Z,58.97
2023-02-11T12:21:24.132Z,60.85
2023-02-11T12:24:03.278Z,60.80
2023-02-11T12:26:38.179Z,56.95
2023-02-11T12:29:13.816Z,56.97
2023-02-11T12:31:57.717Z,60.80
2023-02-11T12:34:38.378Z,57.75
2023-02-11T12:37:17.232Z,61.63
2023-02-11T12:39:53.237Z,53.08
2023-02-11T12:42:51.636Z,54.42
2023-02-11T12:45:34.939Z,51.15
2023-02-11T12:48:18.489Z,56.70
2023-02-11T12:50:56.804Z,59.30
2023-02-11T12:53:36.489Z,54.92
2023-02-11T12:56:09.348Z,53.88
2023-02-11T12:58:45.488Z,58.42
2023-02-11T13:01:20.788Z,62.47
2023-02-11T13:03:57.207Z,58.17
2023-02-11T13:06:32.414Z,58.22
2023-02-11T13:09:04.461Z,60.88
2023-02-11T13:11:40.294Z,58.67
2023-02-11T13:14:15.670Z,59.47
2023-02-11T13:16:46.858Z,52.80
2023-02-11T13:19:24.440Z,49.67
2023-02-11T13:22:07.527Z,56.63
2023-02-11T13:24:44.627Z,69.55
2023-02-11T13:27:25.845Z,62.45
2023-02-11T13:30:21.867Z,61.08
2023-02-11T13:33:09.432Z,60.47
2023-02-11T13:35:43.292Z,53.63
2023-02-11T13:38:21.707Z,56.25
2023-02-11T13:41:02.760Z,58.63
2023-02-11T13:43:34.137Z,59.58
2023-02-11T13:46:05.286Z,55.83
2023-02-11T13:48:36.637Z,59.58
2023-02-11T13:51:10.364Z,58.90
2023-02-11T13:53:48.828Z,56.47
2023-02-11T13:56:32.641Z,55.80
2023-02-11T13:59:03.012Z,53.58
2023-02-11T14:01:44.209Z,54.15
2023-02-11T14:04:37.122Z,59.97
2023-02-11T14:07:40.176Z,56.55
2023-02-11T14:10:45.159Z,60.03
2023-02-11T14:13:25.182Z,55.75
2023-02-11T14:16:10.801Z,64.85
2023-02-11T14:19:02.466Z,59.00
2023-02-11T14:21:38.347Z,59.60
2023-02-11T14:24:38.125Z,63.78
2023-02-11T14:27:12.280Z,60.60
2023-02-11T14:32:18.024Z,61.78
2023-02-11T14:34:54.859Z,69.90
2023-02-11T14:37:34.356Z,61.03
2023-02-11T14:40:12.574Z,64.70
2023-02-11T14:42:44.940Z,68.68
2023-02-11T14:45:19.500Z,62.00
2023-02-11T14:47:53.759Z,67.95
2023-02-11T14:50:28.240Z,64.18
2023-02-11T14:52:58.678Z,66.78
2023-02-11T14:55:33.249Z,67.93
2023-02-11T14:58:20.211Z,68.82
2023-02-11T15:00:51.539Z,67.75
2023-02-11T15:03:41.542Z,68.97
2023-02-11T15:06:19.128Z,66.45
2023-02-11T15:08:51.687Z,70.07
2023-02-11T15:11:23.466Z,61.38
2023-02-11T15:13:56.004Z,63.80
2023-02-11T15:16:27.386Z,64.72
2023-02-11T15:18:59.654Z,71.20
2023-02-11T15:21:31.408Z,73.13
2023-02-11T15:24:04.166Z,66.00
2023-02-11T15:26:33.864Z,64.47
2023-02-11T15:29:06.219Z,69.53
2023-02-11T15:31:36.115Z,71.80
2023-02-11T15:34:10.317Z,74.82
2023-02-11T15:39:20.600Z,72.28
2023-02-11T15:41:50.172Z,59.28
2023-02-11T15:44:35.787Z,68.75
2023-02-11T15:47:05.409Z,65.82
2023-02-11T15:49:35.542Z,69.38
2023-02-11T15:52:06.288Z,69.80
2023-02-11T15:54:35.966Z,70.32
2023-02-11T15:57:06.881Z,61.95
2023-02-11T15:59:40.854Z,62.92
2023-02-11T16:02:12.449Z,64.57
2023-02-11T16:04:42.128Z,71.22
2023-02-11T16:07:45.051Z,65.75
2023-02-11T16:10:26.906Z,67.35
2023-02-11T16:12:58.842Z,61.30
2023-02-11T16:15:45.582Z,66.65
2023-02-11T16:18:37.899Z,67.32
2023-02-11T16:21:10.007Z,66.30
2023-02-11T16:23:42.087Z,64.32
2023-02-11T16:26:16.090Z,66.43
2023-02-11T16:28:45.780Z,68.68
2023-02-11T16:31:18.053Z,78.85
2023-02-11T16:33:47.792Z,78.35
2023-02-11T16:36:18.959Z,63.97
2023-02-11T16:38:48.576Z,75.32
2023-02-11T16:41:18.189Z,65.13
2023-02-11T16:43:47.819Z,67.97
2023-02-11T16:46:20.043Z,61.92
2023-02-11T16:48:49.637Z,61.88
2023-02-11T16:51:19.222Z,70.28
2023-02-11T16:53:48.810Z,65.45
2023-02-11T16:56:20.427Z,69.88
2023-02-11T16:58:50.029Z,66.95
2023-02-11T17:01:22.277Z,62.13
2023-02-11T17:03:52.044Z,66.00
2023-02-11T17:06:21.610Z,68.93
2023-02-11T17:08:51.208Z,99.45
2023-02-11T17:11:20.789Z,83.18
2023-02-11T17:13:50.475Z,82.28
2023-02-11T17:16:25.028Z,66.68
2023-02-11T17:18:55.248Z,64.45
2023-02-11T17:21:28.167Z,66.60
2023-02-11T17:23:59.131Z,61.75
2023-02-11T17:26:28.748Z,65.22
2023-02-11T17:28:58.522Z,67.03
2023-02-11T17:31:30.757Z,65.20
2023-02-11T17:34:00.594Z,68.97
2023-02-11T17:36:31.341Z,61.40
2023-02-11T17:39:00.974Z,69.00
2023-02-11T17:41:31.201Z,66.00
2023-02-11T17:44:01.462Z,65.75
2023-02-11T17:46:34.102Z,72.85
2023-02-11T17:49:04.169Z,67.10
2023-02-11T17:51:35.272Z,75.47
2023-02-11T17:54:06.118Z,71.57
2023-02-11T17:56:37.538Z,69.65
2023-02-11T17:59:08.412Z,66.75
2023-02-11T18:01:41.491Z,70.90
2023-02-11T18:04:13.850Z,67.72
2023-02-11T18:06:43.860Z,68.70
2023-02-11T18:09:13.845Z,69.35
2023-02-11T18:11:43.957Z,66.78
2023-02-11T18:14:13.730Z,67.80
2023-02-11T18:16:47.457Z,70.38
2023-02-11T18:19:17.138Z,72.25
2023-02-11T18:21:48.832Z,72.47
2023-02-11T18:24:18.876Z,76.40
2023-02-11T18:26:48.450Z,71.55
2023-02-11T18:29:18.061Z,73.65
2023-02-11T18:31:50.606Z,74.82
2023-02-11T18:34:20.163Z,75.05
2023-02-11T18:36:49.938Z,76.22
2023-02-11T18:39:20.052Z,71.53
2023-02-11T18:41:53.909Z,68.97
2023-02-11T18:44:24.765Z,78.90
2023-02-11T18:46:56.960Z,70.85
2023-02-11T18:49:26.553Z,68.93
2023-02-11T18:51:58.616Z,67.60
2023-02-11T18:54:28.264Z,73.47
2023-02-11T18:56:57.766Z,69.28
2023-02-11T18:59:27.477Z,83.45
2023-02-11T19:01:59.649Z,71.75
2023-02-11T19:04:29.293Z,70.00
2023-02-11T19:07:03.145Z,69.63
2023-02-11T19:09:33.216Z,82.95
2023-02-11T19:12:02.841Z,131.77
2023-02-11T19:14:34.958Z,75.97
2023-02-11T19:17:11.848Z,74.38
2023-02-11T19:19:41.629Z,73.40
2023-02-11T19:22:11.242Z,69.82
2023-02-11T19:24:41.359Z,76.18
2023-02-11T19:27:10.945Z,72.85
2023-02-11T19:29:40.961Z,70.05
2023-02-11T19:32:13.177Z,73.18
2023-02-11T19:34:43.739Z,68.22
2023-02-11T19:37:15.193Z,68.82
2023-02-11T19:39:45.712Z,68.38
2023-02-11T19:42:15.690Z,69.93
2023-02-11T19:44:45.277Z,68.95
2023-02-11T19:47:17.990Z,69.40
2023-02-11T19:49:48.013Z,70.68
2023-02-11T19:52:17.623Z,66.35
2023-02-11T19:54:47.261Z,69.20
2023-02-11T19:57:16.873Z,68.60
2023-02-11T19:59:46.530Z,68.28
2023-02-11T20:02:19.315Z,64.10
2023-02-11T20:04:48.959Z,64.30
2023-02-11T20:07:18.537Z,70.60
2023-02-11T20:09:48.110Z,65.93
2023-02-11T20:12:17.755Z,79.35
2023-02-11T20:14:47.370Z,67.53
2023-02-11T20:17:19.566Z,68.25
2023-02-11T20:19:49.240Z,67.32
2023-02-11T20:22:18.827Z,68.15
2023-02-11T20:24:48.461Z,66.57
2023-02-11T20:27:20.054Z,70.43
2023-02-11T20:29:49.860Z,67.00
2023-02-11T20:32:22.187Z,69.68
2023-02-11T20:34:51.827Z,71.15
2023-02-11T20:37:21.437Z,67.68
2023-02-11T20:39:51.284Z,65.13
2023-02-11T20:42:20.888Z,70.30
2023-02-11T20:44:50.484Z,71.72
2023-02-11T20:47:23.147Z,65.32
2023-02-11T20:49:52.948Z,73.25
2023-02-11T20:52:22.645Z,73.32
2023-02-11T20:54:52.321Z,68.13
2023-02-11T20:57:22.396Z,72.15
2023-02-11T20:59:52.042Z,71.40
2023-02-11T21:02:24.936Z,65.95
2023-02-11T21:04:54.628Z,63.15
2023-02-11T21:07:24.444Z,69.32
2023-02-11T21:09:54.036Z,76.28
2023-02-11T21:12:24.077Z,70.68
2023-02-11T21:14:54.037Z,71.85
2023-02-11T21:17:26.547Z,69.05
2023-02-11T21:19:56.220Z,73.57
2023-02-11T21:22:25.857Z,73.40
2023-02-11T21:24:55.493Z,73.43
2023-02-11T21:27:31.067Z,70.13
2023-02-11T21:30:02.326Z,72.53
2023-02-11T21:32:34.507Z,72.57
2023-02-11T21:35:04.172Z,78.57
2023-02-11T21:37:33.942Z,68.57
2023-02-11T21:40:03.522Z,73.25
2023-02-11T21:42:33.180Z,67.57
2023-02-11T21:45:02.787Z,73.10
2023-02-11T21:47:35.007Z,69.30
2023-02-11T21:50:04.594Z,71.72
2023-02-11T21:52:34.195Z,77.43
2023-02-11T21:55:03.768Z,69.55
2023-02-11T21:57:33.778Z,73.20
2023-02-11T22:00:03.390Z,68.88
2023-02-11T22:02:37.884Z,73.72
2023-02-11T22:05:08.139Z,82.60
2023-02-11T22:07:38.593Z,77.22
2023-02-11T22:10:09.203Z,80.22
2023-02-11T22:12:38.787Z,85.95
2023-02-11T22:15:09.604Z,83.57
2023-02-11T22:17:41.833Z,78.10
2023-02-11T22:20:12.848Z,76.78
2023-02-11T22:22:42.472Z,71.05
2023-02-11T22:25:12.083Z,71.40
2023-02-11T22:27:41.663Z,69.47
2023-02-11T22:30:12.650Z,68.65
2023-02-11T22:32:45.059Z,74.35
2023-02-11T22:35:15.033Z,71.30
2023-02-11T22:37:45.018Z,70.93
2023-02-11T22:40:16.555Z,69.65
2023-02-11T22:42:46.208Z,71.05
2023-02-11T22:45:15.869Z,69.60
2023-02-11T22:47:48.059Z,74.10
2023-02-11T22:50:18.079Z,74.85
2023-02-11T22:52:47.665Z,71.63
2023-02-11T22:55:17.327Z,75.40
2023-02-11T22:57:46.943Z,74.60
2023-02-11T23:00:18.122Z,74.60
2023-02-11T23:02:50.726Z,68.47
2023-02-11T23:05:20.480Z,70.18
2023-02-11T23:07:50.096Z,70.05
2023-02-11T23:10:20.061Z,67.70
2023-02-11T23:12:49.660Z,72.07
2023-02-11T23:15:19.492Z,65.57
2023-02-11T23:17:51.661Z,68.97
2023-02-11T23:20:21.573Z,66.82
2023-02-11T23:22:51.253Z,71.53
2023-02-11T23:25:20.962Z,71.18
2023-02-11T23:27:50.658Z,70.85
2023-02-11T23:30:21.908Z,67.57
2023-02-11T23:32:54.619Z,74.97
2023-02-11T23:35:24.909Z,67.53
2023-02-11T23:37:55.142Z,68.90
2023-02-11T23:40:25.064Z,69.53
2023-02-11T23:42:54.745Z,67.38
2023-02-11T23:45:24.348Z,67.03
2023-02-11T23:47:56.533Z,67.35
2023-02-11T23:50:26.129Z,60.72
2023-02-11T23:52:55.726Z,75.20
2023-02-11T23:55:25.356Z,61.92
2023-02-11T23:57:54.966Z,72.03
